Time,TemperatureF,DewpointF,PressureIn,WindDirection,WindDirectionDegrees,WindSpeedMPH,WindSpeedGustMPH,Humidity,HourlyPrecipIn,Conditions,Clouds,dailyrainin,SoftwareType,DateUTC
2013-05-20 00:02:00,29.4,16.4,30.21,NW,315,0.0,0.0,58,0.00,,,0.00,WUHU216HW,2013-05-20 08:02:00,
2013-05-20 00:07:00,29.1,16.5,30.21,NW,315,0.0,0.0,59,0.00,,,0.00,WUHU216HW,2013-05-20 08:07:00,
2013-05-20 00:12:00,29.1,16.5,30.22,NW,315,0.0,0.0,59,0.00,,,0.00,WUHU216HW,2013-05-20 08:12:00,
2013-05-20 00:17:00,28.9,16.4,30.21,NW,315,0.0,0.0,59,0.00,,,0.00,WUHU216HW,2013-05-20 08:17:00,
2013-05-20 00:22:00,28.5,16.0,30.21,NW,315,0.0,0.0,59,0.00,,,0.00,WUHU216HW,2013-05-20 08:22:00,
2013-05-20 00:27:00,28.4,15.9,30.21,NW,315,0.0,0.0,59,0.00,,,0.00,WUHU216HW,2013-05-20 08:27:00,
2013-05-20 00:32:00,28.2,15.7,30.22,NW,315,0.0,0.0,59,0.00,,,0.00,WUHU216HW,2013-05-20 08:32:00,
2013-05-20 00:37:00,28.0,15.9,30.22,NW,315,0.0,0.0,60,0.00,,,0.00,WUHU216HW,2013-05-20 08:37:00,
2013-05-20 00:42:00,28.0,15.9,30.22,NW,315,0.0,0.0,60,0.00,,,0.00,WUHU216HW,2013-05-20 08:42:00,
2013-05-20 00:47:00,28.0,16.3,30.22,NW,315,0.0,0.0,61,0.00,,,0.00,WUHU216HW,2013-05-20 08:47:00,
2013-05-20 00:52:00,27.6,15.9,30.22,NW,315,0.0,0.0,61,0.00,,,0.00,WUHU216HW,2013-05-20 08:52:00,
2013-05-20 00:57:00,27.6,15.9,30.22,NW,315,0.0,0.0,61,0.00,,,0.00,WUHU216HW,2013-05-20 08:57:00,
2013-05-20 01:02:00,27.5,15.8,30.22,NW,315,0.0,0.0,61,0.00,,,0.00,WUHU216HW,2013-05-20 09:02:00,
2013-05-20 01:07:00,27.1,15.4,30.22,NW,315,0.0,0.0,61,0.00,,,0.00,WUHU216HW,2013-05-20 09:07:00,
2013-05-20 01:12:00,27.1,15.8,30.22,NW,315,0.0,0.0,62,0.00,,,0.00,WUHU216HW,2013-05-20 09:12:00,
2013-05-20 01:17:00,26.9,15.6,30.23,NW,315,0.0,0.0,62,0.00,,,0.00,WUHU216HW,2013-05-20 09:17:00,
2013-05-20 01:22:00,26.7,15.4,30.23,NW,315,0.0,0.0,62,0.00,,,0.00,WUHU216HW,2013-05-20 09:22:00,
2013-05-20 01:27:00,26.7,15.8,30.23,NW,315,0.0,0.0,63,0.00,,,0.00,WUHU216HW,2013-05-20 09:27:00,
2013-05-20 01:32:00,26.4,15.4,30.23,NW,315,0.0,0.0,63,0.00,,,0.00,WUHU216HW,2013-05-20 09:32:00,
2013-05-20 01:37:00,26.4,15.4,30.23,NW,315,0.0,0.0,63,0.00,,,0.00,WUHU216HW,2013-05-20 09:37:00,
2013-05-20 01:42:00,26.2,15.2,30.23,NW,315,0.0,0.0,63,0.00,,,0.00,WUHU216HW,2013-05-20 09:42:00,
2013-05-20 01:47:00,26.2,15.6,30.23,NW,315,0.0,0.0,64,0.00,,,0.00,WUHU216HW,2013-05-20 09:47:00,
2013-05-20 01:52:00,26.0,15.4,30.23,NW,315,0.0,0.0,64,0.00,,,0.00,WUHU216HW,2013-05-20 09:52:00,
2013-05-20 01:57:00,25.8,15.6,30.23,NW,315,0.0,0.0,65,0.00,,,0.00,WUHU216HW,2013-05-20 09:57:00,
2013-05-20 02:02:00,25.8,15.6,30.23,NW,315,0.0,0.0,65,0.00,,,0.00,WUHU216HW,2013-05-20 10:02:00,
2013-05-20 02:07:00,25.7,15.4,30.24,NW,315,0.0,0.0,65,0.00,,,0.00,WUHU216HW,2013-05-20 10:07:00,
2013-05-20 02:12:00,25.5,15.3,30.24,NW,315,0.0,0.0,65,0.00,,,0.00,WUHU216HW,2013-05-20 10:12:00,
2013-05-20 02:17:00,25.5,15.6,30.24,NW,315,0.0,0.0,66,0.00,,,0.00,WUHU216HW,2013-05-20 10:17:00,
2013-05-20 02:22:00,25.3,15.1,30.24,NW,315,0.0,0.0,65,0.00,,,0.00,WUHU216HW,2013-05-20 10:22:00,
2013-05-20 02:27:00,25.1,15.3,30.24,NW,315,0.0,0.0,66,0.00,,,0.00,WUHU216HW,2013-05-20 10:27:00,
2013-05-20 02:32:00,24.9,15.1,30.25,NW,315,0.0,0.0,66,0.00,,,0.00,WUHU216HW,2013-05-20 10:32:00,
2013-05-20 02:37:00,24.9,15.1,30.25,NW,315,0.0,0.0,66,0.00,,,0.00,WUHU216HW,2013-05-20 10:37:00,
2013-05-20 02:42:00,24.6,14.7,30.25,NW,315,0.0,0.0,66,0.00,,,0.00,WUHU216HW,2013-05-20 10:42:00,
2013-05-20 02:47:00,24.6,15.1,30.25,NW,315,0.0,0.0,67,0.00,,,0.00,WUHU216HW,2013-05-20 10:47:00,
2013-05-20 02:52:00,24.6,15.1,30.25,NW,315,0.0,0.0,67,0.00,,,0.00,WUHU216HW,2013-05-20 10:52:00,
2013-05-20 02:57:00,24.4,14.9,30.25,NW,315,0.0,0.0,67,0.00,,,0.00,WUHU216HW,2013-05-20 10:57:00,
2013-05-20 03:02:00,24.4,14.9,30.25,NW,315,0.0,0.0,67,0.00,,,0.00,WUHU216HW,2013-05-20 11:02:00,
2013-05-20 03:07:00,24.0,14.6,30.25,NW,315,0.0,0.0,67,0.00,,,0.00,WUHU216HW,2013-05-20 11:07:00,
2013-05-20 03:12:00,24.0,14.9,30.25,NW,315,0.0,0.0,68,0.00,,,0.00,WUHU216HW,2013-05-20 11:12:00,
2013-05-20 03:17:00,23.9,14.8,30.25,NW,315,0.0,0.0,68,0.00,,,0.00,WUHU216HW,2013-05-20 11:17:00,
2013-05-20 03:22:00,23.9,14.8,30.25,NW,315,0.0,0.0,68,0.00,,,0.00,WUHU216HW,2013-05-20 11:22:00,
2013-05-20 03:27:00,23.7,15.0,30.25,NW,315,0.0,0.0,69,0.00,,,0.00,WUHU216HW,2013-05-20 11:27:00,
2013-05-20 03:32:00,23.5,14.8,30.26,NW,315,0.0,0.0,69,0.00,,,0.00,WUHU216HW,2013-05-20 11:32:00,
2013-05-20 03:37:00,23.5,14.8,30.25,NW,315,0.0,0.0,69,0.00,,,0.00,WUHU216HW,2013-05-20 11:37:00,
2013-05-20 03:42:00,23.5,14.8,30.25,NW,315,0.0,0.0,69,0.00,,,0.00,WUHU216HW,2013-05-20 11:42:00,
2013-05-20 03:47:00,23.5,14.8,30.25,NW,315,0.0,0.0,69,0.00,,,0.00,WUHU216HW,2013-05-20 11:47:00,
2013-05-20 03:52:00,23.5,14.8,30.26,NW,315,0.0,0.0,69,0.00,,,0.00,WUHU216HW,2013-05-20 11:52:00,
2013-05-20 03:57:00,23.3,15.0,30.25,NW,315,0.0,0.0,70,0.00,,,0.00,WUHU216HW,2013-05-20 11:57:00,
2013-05-20 04:02:00,23.3,15.0,30.25,NW,315,0.0,0.0,70,0.00,,,0.00,WUHU216HW,2013-05-20 12:02:00,
2013-05-20 04:07:00,23.1,14.8,30.26,NW,315,0.0,0.0,70,0.00,,,0.00,WUHU216HW,2013-05-20 12:07:00,
2013-05-20 04:12:00,23.1,15.1,30.26,NW,315,0.0,0.0,71,0.00,,,0.00,WUHU216HW,2013-05-20 12:12:00,
2013-05-20 04:17:00,23.0,15.0,30.26,NW,315,0.0,0.0,71,0.00,,,0.00,WUHU216HW,2013-05-20 12:17:00,
2013-05-20 04:22:00,23.0,15.0,30.26,NW,315,0.0,0.0,71,0.00,,,0.00,WUHU216HW,2013-05-20 12:22:00,
2013-05-20 04:27:00,22.8,14.8,30.26,NW,315,0.0,0.0,71,0.00,,,0.00,WUHU216HW,2013-05-20 12:27:00,
2013-05-20 04:32:00,22.8,14.8,30.26,NW,315,0.0,0.0,71,0.00,,,0.00,WUHU216HW,2013-05-20 12:32:00,
2013-05-20 04:37:00,22.8,15.1,30.26,NW,315,0.0,0.0,72,0.00,,,0.00,WUHU216HW,2013-05-20 12:37:00,
2013-05-20 04:42:00,22.8,15.1,30.26,NW,315,0.0,0.0,72,0.00,,,0.00,WUHU216HW,2013-05-20 12:42:00,
2013-05-20 04:48:00,22.8,15.1,30.27,NW,315,0.0,0.0,72,0.00,,,0.00,WUHU216HW,2013-05-20 12:48:00,
2013-05-20 04:53:00,22.8,15.1,30.27,NW,315,0.0,0.0,72,0.00,,,0.00,WUHU216HW,2013-05-20 12:53:00,
2013-05-20 04:57:00,22.8,15.1,30.26,NW,315,0.0,0.0,72,0.00,,,0.00,WUHU216HW,2013-05-20 12:57:00,
2013-05-20 05:02:00,22.6,14.9,30.26,NW,315,0.0,0.0,72,0.00,,,0.00,WUHU216HW,2013-05-20 13:02:00,
2013-05-20 05:07:00,22.6,14.9,30.26,NW,315,0.0,0.0,72,0.00,,,0.00,WUHU216HW,2013-05-20 13:07:00,
2013-05-20 05:12:00,22.4,14.7,30.26,NW,315,0.0,0.0,72,0.00,,,0.00,WUHU216HW,2013-05-20 13:12:00,
2013-05-20 05:17:00,22.2,14.6,30.26,NW,315,0.0,0.0,72,0.00,,,0.00,WUHU216HW,2013-05-20 13:17:00,
2013-05-20 05:23:00,22.2,14.6,30.26,NW,315,0.0,0.0,72,0.00,,,0.00,WUHU216HW,2013-05-20 13:23:00,
2013-05-20 05:28:00,22.2,14.9,30.26,NW,315,0.0,0.0,73,0.00,,,0.00,WUHU216HW,2013-05-20 13:28:00,
2013-05-20 05:33:00,22.2,14.9,30.26,NW,315,0.0,0.0,73,0.00,,,0.00,WUHU216HW,2013-05-20 13:33:00,
2013-05-20 05:38:00,22.2,14.9,30.26,NW,315,0.0,0.0,73,0.00,,,0.00,WUHU216HW,2013-05-20 13:38:00,
2013-05-20 05:43:00,22.2,15.2,30.26,NW,315,0.0,0.0,74,0.00,,,0.00,WUHU216HW,2013-05-20 13:43:00,
2013-05-20 05:48:00,22.4,15.4,30.26,NW,315,0.0,0.0,74,0.00,,,0.00,WUHU216HW,2013-05-20 13:48:00,
2013-05-20 05:53:00,22.6,15.5,30.26,NW,315,0.0,0.0,74,0.00,,,0.00,WUHU216HW,2013-05-20 13:53:00,
2013-05-20 05:58:00,22.8,15.7,30.26,NW,315,0.0,0.0,74,0.00,,,0.00,WUHU216HW,2013-05-20 13:58:00,
2013-05-20 06:03:00,22.8,15.7,30.26,NW,315,0.0,0.0,74,0.00,,,0.00,WUHU216HW,2013-05-20 14:03:00,
2013-05-20 06:08:00,22.8,15.7,30.26,NW,315,0.0,0.0,74,0.00,,,0.00,WUHU216HW,2013-05-20 14:08:00,
2013-05-20 06:13:00,23.1,16.1,30.26,NW,315,0.0,0.0,74,0.00,,,0.00,WUHU216HW,2013-05-20 14:13:00,
2013-05-20 06:18:00,23.3,16.2,30.26,NW,315,0.0,0.0,74,0.00,,,0.00,WUHU216HW,2013-05-20 14:18:00,
2013-05-20 06:23:00,23.5,16.7,30.26,NW,315,0.0,0.0,75,0.00,,,0.00,WUHU216HW,2013-05-20 14:23:00,
2013-05-20 06:28:00,24.0,17.2,30.26,NW,315,0.0,0.0,75,0.00,,,0.00,WUHU216HW,2013-05-20 14:28:00,
2013-05-20 06:33:00,24.4,17.6,30.26,NW,315,0.0,0.0,75,0.00,,,0.00,WUHU216HW,2013-05-20 14:33:00,
2013-05-20 06:38:00,25.5,18.9,30.25,NW,315,0.0,0.0,76,0.00,,,0.00,WUHU216HW,2013-05-20 14:38:00,
2013-05-20 06:43:00,28.7,21.4,30.25,NW,315,0.0,0.0,75,0.00,,,0.00,WUHU216HW,2013-05-20 14:43:00,
2013-05-20 06:48:00,30.7,23.3,30.25,NW,315,0.0,0.0,74,0.00,,,0.00,WUHU216HW,2013-05-20 14:48:00,
2013-05-20 06:53:00,33.9,25.4,30.25,NW,315,0.0,0.0,71,0.00,,,0.00,WUHU216HW,2013-05-20 14:53:00,
2013-05-20 06:58:00,37.2,27.2,30.25,NW,315,0.0,0.0,67,0.00,,,0.00,WUHU216HW,2013-05-20 14:58:00,
2013-05-20 07:03:00,37.5,26.8,30.25,NW,315,0.0,0.0,65,0.00,,,0.00,WUHU216HW,2013-05-20 15:03:00,
2013-05-20 07:08:00,37.5,26.0,30.25,NW,315,0.0,0.0,63,0.00,,,0.00,WUHU216HW,2013-05-20 15:08:00,
2013-05-20 07:13:00,36.6,24.8,30.25,NW,315,0.0,0.0,62,0.00,,,0.00,WUHU216HW,2013-05-20 15:13:00,
2013-05-20 07:18:00,36.1,24.7,30.25,NW,315,0.0,0.0,63,0.00,,,0.00,WUHU216HW,2013-05-20 15:18:00,
2013-05-20 07:23:00,35.4,23.7,30.25,NW,315,0.0,0.0,62,0.00,,,0.00,WUHU216HW,2013-05-20 15:23:00,
2013-05-20 07:28:00,35.0,23.7,30.25,NW,315,0.0,0.0,63,0.00,,,0.00,WUHU216HW,2013-05-20 15:28:00,
2013-05-20 07:33:00,35.2,23.9,30.25,NW,315,0.0,0.0,63,0.00,,,0.00,WUHU216HW,2013-05-20 15:33:00,
2013-05-20 07:38:00,35.4,24.4,30.25,NW,315,0.0,0.0,64,0.00,,,0.00,WUHU216HW,2013-05-20 15:38:00,
2013-05-20 07:43:00,35.7,24.7,30.25,NW,315,0.0,0.0,64,0.00,,,0.00,WUHU216HW,2013-05-20 15:43:00,
2013-05-20 07:48:00,35.4,24.0,30.25,NW,315,0.0,0.0,63,0.00,,,0.00,WUHU216HW,2013-05-20 15:48:00,
2013-05-20 07:53:00,35.0,23.7,30.24,NW,315,0.0,0.0,63,0.00,,,0.00,WUHU216HW,2013-05-20 15:53:00,
2013-05-20 07:58:00,34.5,23.1,30.25,NW,315,0.0,0.0,63,0.00,,,0.00,WUHU216HW,2013-05-20 15:58:00,
2013-05-20 08:03:00,34.5,23.1,30.25,NW,315,0.0,0.0,63,0.00,,,0.00,WUHU216HW,2013-05-20 16:03:00,
2013-05-20 08:08:00,34.5,23.1,30.24,NW,315,0.0,0.0,63,0.00,,,0.00,WUHU216HW,2013-05-20 16:08:00,
2013-05-20 08:13:00,34.8,23.5,30.24,NW,315,0.0,0.0,63,0.00,,,0.00,WUHU216HW,2013-05-20 16:13:00,
2013-05-20 08:18:00,35.2,23.9,30.24,NW,315,0.0,0.0,63,0.00,,,0.00,WUHU216HW,2013-05-20 16:18:00,
2013-05-20 08:23:00,35.4,24.0,30.24,NW,315,0.0,0.0,63,0.00,,,0.00,WUHU216HW,2013-05-20 16:23:00,
2013-05-20 08:28:00,35.9,24.2,30.24,NW,315,0.0,0.0,62,0.00,,,0.00,WUHU216HW,2013-05-20 16:28:00,
2013-05-20 08:33:00,36.3,24.5,30.24,NW,315,0.0,0.0,62,0.00,,,0.00,WUHU216HW,2013-05-20 16:33:00,
2013-05-20 08:38:00,36.8,25.0,30.24,NW,315,0.0,0.0,62,0.00,,,0.00,WUHU216HW,2013-05-20 16:38:00,
2013-05-20 08:43:00,37.9,25.6,30.24,NW,315,0.0,0.0,61,0.00,,,0.00,WUHU216HW,2013-05-20 16:43:00,
2013-05-20 08:48:00,38.4,25.7,30.24,NW,315,0.0,0.0,60,0.00,,,0.00,WUHU216HW,2013-05-20 16:48:00,
2013-05-20 08:53:00,38.8,26.0,30.24,NW,315,0.0,0.0,60,0.00,,,0.00,WUHU216HW,2013-05-20 16:53:00,
2013-05-20 08:58:00,39.3,26.1,30.23,NW,315,0.0,0.0,59,0.00,,,0.00,WUHU216HW,2013-05-20 16:58:00,
2013-05-20 09:03:00,40.1,26.8,30.23,NW,315,0.0,0.0,59,0.00,,,0.00,WUHU216HW,2013-05-20 17:03:00,
2013-05-20 09:08:00,40.6,26.5,30.24,NW,315,0.0,0.0,57,0.00,,,0.00,WUHU216HW,2013-05-20 17:08:00,
2013-05-20 09:13:00,41.5,26.9,30.23,NW,315,0.0,0.0,56,0.00,,,0.00,WUHU216HW,2013-05-20 17:13:00,
2013-05-20 09:18:00,42.4,27.3,30.23,NW,315,1.3,1.3,55,0.00,,,0.00,WUHU216HW,2013-05-20 17:18:00,
2013-05-20 09:23:00,43.7,28.0,30.23,NW,315,0.0,1.3,54,0.00,,,0.00,WUHU216HW,2013-05-20 17:23:00,
2013-05-20 09:28:00,46.2,28.0,30.23,NW,315,0.0,1.3,49,0.00,,,0.00,WUHU216HW,2013-05-20 17:28:00,
2013-05-20 09:33:00,47.8,28.1,30.23,NW,315,0.0,0.0,46,0.00,,,0.00,WUHU216HW,2013-05-20 17:33:00,
2013-05-20 09:38:00,48.0,28.0,30.24,NW,315,0.0,0.0,46,0.00,,,0.00,WUHU216HW,2013-05-20 17:38:00,
2013-05-20 09:43:00,47.8,27.8,30.23,NW,315,0.0,0.8,46,0.00,,,0.00,WUHU216HW,2013-05-20 17:43:00,
2013-05-20 09:48:00,47.8,27.3,30.23,West,270,0.0,0.8,45,0.00,,,0.00,WUHU216HW,2013-05-20 17:48:00,
2013-05-20 09:53:00,48.0,26.9,30.23,West,270,0.0,0.0,44,0.00,,,0.00,WUHU216HW,2013-05-20 17:53:00,
2013-05-20 09:58:00,49.8,29.2,30.23,West,270,0.0,0.0,45,0.00,,,0.00,WUHU216HW,2013-05-20 17:58:00,
2013-05-20 10:03:00,55.4,32.0,30.23,WNW,293,4.4,5.5,41,0.00,,,0.00,WUHU216HW,2013-05-20 18:03:00,
2013-05-20 10:08:00,59.1,33.4,30.23,WNW,293,4.9,5.5,38,0.00,,,0.00,WUHU216HW,2013-05-20 18:08:00,
2013-05-20 10:13:00,62.2,34.7,30.23,SW,225,0.0,4.9,36,0.00,,,0.00,WUHU216HW,2013-05-20 18:13:00,
2013-05-20 10:18:00,64.5,35.4,30.23,WSW,248,0.0,4.9,33,0.00,,,0.00,WUHU216HW,2013-05-20 18:18:00,
2013-05-20 10:23:00,66.9,35.9,30.23,WNW,293,2.4,3.8,32,0.00,,,0.00,WUHU216HW,2013-05-20 18:23:00,
2013-05-20 10:28:00,67.8,35.9,30.23,WNW,293,0.0,3.8,31,0.00,,,0.00,WUHU216HW,2013-05-20 18:28:00,
2013-05-20 10:33:00,68.5,36.3,30.23,WNW,293,2.9,2.9,31,0.00,,,0.00,WUHU216HW,2013-05-20 18:33:00,
2013-05-20 10:38:00,69.9,36.1,30.23,WNW,293,6.2,6.2,29,0.00,,,0.00,WUHU216HW,2013-05-20 18:38:00,
2013-05-20 10:43:00,70.5,36.6,30.23,NW,315,0.0,6.2,29,0.00,,,0.00,WUHU216HW,2013-05-20 18:43:00,
2013-05-20 10:48:00,70.7,34.9,30.23,WNW,293,5.8,6.2,27,0.00,,,0.00,WUHU216HW,2013-05-20 18:48:00,
2013-05-20 10:53:00,69.6,33.8,30.22,West,270,1.7,5.8,27,0.00,,,0.00,WUHU216HW,2013-05-20 18:53:00,
2013-05-20 10:58:00,70.1,34.3,30.22,NW,315,1.1,5.8,27,0.00,,,0.00,WUHU216HW,2013-05-20 18:58:00,
2013-05-20 11:03:00,71.2,35.2,30.22,NW,315,2.6,2.6,27,0.00,,,0.00,WUHU216HW,2013-05-20 19:03:00,
2013-05-20 11:08:00,70.7,33.7,30.22,WNW,293,0.6,4.0,26,0.00,,,0.00,WUHU216HW,2013-05-20 19:08:00,
2013-05-20 11:13:00,69.6,32.8,30.22,South,180,0.0,4.0,26,0.00,,,0.00,WUHU216HW,2013-05-20 19:13:00,
2013-05-20 11:18:00,68.7,33.0,30.22,WNW,293,5.1,5.1,27,0.00,,,0.00,WUHU216HW,2013-05-20 19:18:00,
2013-05-20 11:23:00,66.9,31.5,30.22,WNW,293,4.2,5.1,27,0.00,,,0.00,WUHU216HW,2013-05-20 19:23:00,
2013-05-20 11:28:00,64.9,29.8,30.22,West,270,0.0,5.1,27,0.00,,,0.00,WUHU216HW,2013-05-20 19:28:00,
2013-05-20 11:33:00,61.5,28.7,30.22,WNW,293,0.6,4.2,29,0.00,,,0.00,WUHU216HW,2013-05-20 19:33:00,
2013-05-20 11:38:00,59.5,27.1,30.22,NE,45,1.5,1.5,29,0.00,,,0.00,WUHU216HW,2013-05-20 19:38:00,
2013-05-20 11:43:00,57.7,26.5,30.22,NNW,338,0.0,4.0,30,0.00,,,0.00,WUHU216HW,2013-05-20 19:43:00,
2013-05-20 11:48:00,56.1,25.7,30.22,NNE,23,5.8,5.8,31,0.00,,,0.00,WUHU216HW,2013-05-20 19:48:00,
2013-05-20 11:53:00,56.6,26.9,30.22,NNW,338,0.0,5.8,32,0.00,,,0.00,WUHU216HW,2013-05-20 19:53:00,
2013-05-20 11:59:00,58.8,28.9,30.22,ENE,68,0.0,5.8,32,0.00,,,0.00,WUHU216HW,2013-05-20 19:59:00,
2013-05-20 12:04:00,62.2,30.4,30.22,North,0,0.0,4.0,30,0.00,,,0.00,WUHU216HW,2013-05-20 20:04:00,
2013-05-20 12:09:00,64.2,31.2,30.22,WSW,248,0.0,4.0,29,0.00,,,0.00,WUHU216HW,2013-05-20 20:09:00,
2013-05-20 12:14:00,65.4,31.3,30.22,NE,45,0.0,0.0,28,0.00,,,0.00,WUHU216HW,2013-05-20 20:14:00,
2013-05-20 12:19:00,67.4,32.3,30.22,ENE,68,0.0,6.0,28,0.00,,,0.00,WUHU216HW,2013-05-20 20:19:00,
2013-05-20 12:24:00,68.7,33.0,30.22,ESE,113,3.8,6.0,27,0.00,,,0.00,WUHU216HW,2013-05-20 20:24:00,
2013-05-20 12:29:00,69.0,33.3,30.22,East,90,0.0,3.8,27,0.00,,,0.00,WUHU216HW,2013-05-20 20:29:00,
2013-05-20 12:34:00,69.6,33.8,30.22,WSW,248,0.0,3.8,27,0.00,,,0.00,WUHU216HW,2013-05-20 20:34:00,
2013-05-20 12:39:00,70.1,33.3,30.21,South,180,3.1,3.3,26,0.00,,,0.00,WUHU216HW,2013-05-20 20:39:00,
2013-05-20 12:44:00,68.7,32.0,30.21,South,180,6.4,6.4,26,0.00,,,0.00,WUHU216HW,2013-05-20 20:44:00,
2013-05-20 12:49:00,68.1,32.5,30.22,WSW,248,0.0,6.4,27,0.00,,,0.00,WUHU216HW,2013-05-20 20:49:00,
2013-05-20 12:54:00,69.6,32.8,30.21,SSW,203,0.0,4.6,26,0.00,,,0.00,WUHU216HW,2013-05-20 20:54:00,
2013-05-20 12:59:00,71.0,35.0,30.21,NNE,23,0.0,0.0,27,0.00,,,0.00,WUHU216HW,2013-05-20 20:59:00,
2013-05-20 13:04:00,73.0,35.7,30.21,North,0,0.0,0.0,26,0.00,,,0.00,WUHU216HW,2013-05-20 21:04:00,
2013-05-20 13:09:00,73.9,36.5,30.21,North,0,0.0,0.0,26,0.00,,,0.00,WUHU216HW,2013-05-20 21:09:00,
2013-05-20 13:14:00,74.3,36.8,30.21,NE,45,0.0,6.9,26,0.00,,,0.00,WUHU216HW,2013-05-20 21:14:00,
2013-05-20 13:19:00,73.7,36.3,30.21,NNW,338,0.0,6.9,26,0.00,,,0.00,WUHU216HW,2013-05-20 21:19:00,
2013-05-20 13:24:00,73.7,36.3,30.20,WSW,248,0.0,0.0,26,0.00,,,0.00,WUHU216HW,2013-05-20 21:24:00,
2013-05-20 13:29:00,73.2,34.8,30.20,West,270,0.0,5.1,25,0.00,,,0.00,WUHU216HW,2013-05-20 21:29:00,
2013-05-20 13:34:00,72.8,34.5,30.20,WNW,293,6.2,6.2,25,0.00,,,0.00,WUHU216HW,2013-05-20 21:34:00,
2013-05-20 13:39:00,72.3,34.1,30.20,NW,315,4.2,6.2,25,0.00,,,0.00,WUHU216HW,2013-05-20 21:39:00,
2013-05-20 13:44:00,72.3,34.1,30.20,WNW,293,2.6,6.2,25,0.00,,,0.00,WUHU216HW,2013-05-20 21:44:00,
2013-05-20 13:49:00,71.9,34.8,30.20,WSW,248,0.0,4.0,26,0.00,,,0.00,WUHU216HW,2013-05-20 21:49:00,
2013-05-20 13:54:00,71.9,33.8,30.19,WSW,248,1.7,4.6,25,0.00,,,0.00,WUHU216HW,2013-05-20 21:54:00,
2013-05-20 13:59:00,71.4,34.3,30.20,WNW,293,4.0,4.6,26,0.00,,,0.00,WUHU216HW,2013-05-20 21:59:00,
2013-05-20 14:04:00,71.4,34.3,30.19,NW,315,0.6,4.0,26,0.00,,,0.00,WUHU216HW,2013-05-20 22:04:00,
2013-05-20 14:09:00,70.5,33.6,30.19,NNW,338,1.1,5.1,26,0.00,,,0.00,WUHU216HW,2013-05-20 22:09:00,
2013-05-20 14:14:00,69.6,32.8,30.19,East,90,0.6,5.1,26,0.00,,,0.00,WUHU216HW,2013-05-20 22:14:00,
2013-05-20 14:19:00,68.5,31.9,30.19,NE,45,0.0,3.1,26,0.00,,,0.00,WUHU216HW,2013-05-20 22:19:00,
2013-05-20 14:24:00,68.1,31.6,30.19,NNE,23,1.3,3.1,26,0.00,,,0.00,WUHU216HW,2013-05-20 22:24:00,
2013-05-20 14:29:00,66.7,31.3,30.19,WNW,293,0.0,2.9,27,0.00,,,0.00,WUHU216HW,2013-05-20 22:29:00,
2013-05-20 14:34:00,66.0,30.7,30.19,WNW,293,6.2,6.2,27,0.00,,,0.00,WUHU216HW,2013-05-20 22:34:00,
2013-05-20 14:39:00,65.3,30.1,30.19,West,270,0.0,6.2,27,0.00,,,0.00,WUHU216HW,2013-05-20 22:39:00,
2013-05-20 14:44:00,65.1,30.0,30.19,NW,315,0.0,4.2,27,0.00,,,0.00,WUHU216HW,2013-05-20 22:44:00,
2013-05-20 14:49:00,64.5,29.5,30.18,South,180,1.1,3.5,27,0.00,,,0.00,WUHU216HW,2013-05-20 22:49:00,
2013-05-20 14:54:00,64.0,29.0,30.18,South,180,2.0,3.5,27,0.00,,,0.00,WUHU216HW,2013-05-20 22:54:00,
2013-05-20 14:59:00,63.3,29.4,30.18,West,270,0.0,3.5,28,0.00,,,0.00,WUHU216HW,2013-05-20 22:59:00,
2013-05-20 15:04:00,63.6,29.7,30.18,WNW,293,0.0,5.3,28,0.00,,,0.00,WUHU216HW,2013-05-20 23:04:00,
2013-05-20 15:09:00,64.2,30.2,30.18,WNW,293,4.6,5.3,28,0.00,,,0.00,WUHU216HW,2013-05-20 23:09:00,
2013-05-20 15:14:00,64.2,30.2,30.18,WSW,248,0.0,4.6,28,0.00,,,0.00,WUHU216HW,2013-05-20 23:14:00,
2013-05-20 15:19:00,64.5,30.5,30.18,West,270,0.0,4.6,28,0.00,,,0.00,WUHU216HW,2013-05-20 23:19:00,
2013-05-20 15:24:00,64.2,29.2,30.18,NW,315,3.3,4.2,27,0.00,,,0.00,WUHU216HW,2013-05-20 23:24:00,
2013-05-20 15:29:00,63.6,29.7,30.18,NNW,338,0.0,3.3,28,0.00,,,0.00,WUHU216HW,2013-05-20 23:29:00,
2013-05-20 15:34:00,63.3,29.4,30.18,SW,225,3.8,3.8,28,0.00,,,0.00,WUHU216HW,2013-05-20 23:34:00,
2013-05-20 15:39:00,62.4,29.6,30.18,WNW,293,4.6,8.0,29,0.00,,,0.00,WUHU216HW,2013-05-20 23:39:00,
2013-05-20 15:44:00,61.5,28.7,30.18,West,270,6.4,8.0,29,0.00,,,0.00,WUHU216HW,2013-05-20 23:44:00,
2013-05-20 15:49:00,60.6,28.9,30.18,NW,315,4.4,6.4,30,0.00,,,0.00,WUHU216HW,2013-05-20 23:49:00,
2013-05-20 15:55:00,59.7,28.2,30.18,NW,315,0.0,6.4,30,0.00,,,0.00,WUHU216HW,2013-05-20 23:55:00,
2013-05-20 16:00:00,59.0,28.3,30.18,West,270,3.3,3.8,31,0.00,,,0.00,WUHU216HW,2013-05-21 00:00:00,
2013-05-20 16:05:00,58.8,28.2,30.18,WSW,248,9.1,9.1,31,0.00,,,0.00,WUHU216HW,2013-05-21 00:05:00,
2013-05-20 16:10:00,58.2,27.7,30.18,West,270,6.7,9.1,31,0.00,,,0.00,WUHU216HW,2013-05-21 00:10:00,
2013-05-20 16:15:00,57.7,27.2,30.18,WNW,293,5.8,6.9,31,0.00,,,0.00,WUHU216HW,2013-05-21 00:15:00,
2013-05-20 16:20:00,57.2,27.4,30.18,SW,225,8.0,8.0,32,0.00,,,0.00,WUHU216HW,2013-05-21 00:20:00,
2013-05-20 16:25:00,56.4,26.1,30.18,WSW,248,2.9,8.0,31,0.00,,,0.00,WUHU216HW,2013-05-21 00:25:00,
2013-05-20 16:30:00,56.1,25.7,30.18,West,270,3.8,6.4,31,0.00,,,0.00,WUHU216HW,2013-05-21 00:30:00,
2013-05-20 16:35:00,55.7,26.1,30.18,West,270,3.3,3.8,32,0.00,,,0.00,WUHU216HW,2013-05-21 00:35:00,
2013-05-20 16:40:00,55.7,26.8,30.18,NW,315,4.0,6.2,33,0.00,,,0.00,WUHU216HW,2013-05-21 00:40:00,
2013-05-20 16:45:00,55.5,26.7,30.18,SW,225,2.4,6.2,33,0.00,,,0.00,WUHU216HW,2013-05-21 00:45:00,
2013-05-20 16:50:00,55.2,25.6,30.18,SSW,203,5.5,6.4,32,0.00,,,0.00,WUHU216HW,2013-05-21 00:50:00,
2013-05-20 16:55:00,54.5,25.7,30.18,WSW,248,0.0,6.4,33,0.00,,,0.00,WUHU216HW,2013-05-21 00:55:00,
2013-05-20 17:00:00,54.1,25.4,30.18,SSW,203,0.0,6.9,33,0.00,,,0.00,WUHU216HW,2013-05-21 01:00:00,
2013-05-20 17:05:00,54.1,26.1,30.18,WNW,293,3.5,10.5,34,0.00,,,0.00,WUHU216HW,2013-05-21 01:05:00,
2013-05-20 17:10:00,53.4,25.5,30.18,WNW,293,6.4,10.5,34,0.00,,,0.00,WUHU216HW,2013-05-21 01:10:00,
2013-05-20 17:15:00,53.4,25.5,30.18,West,270,2.4,8.5,34,0.00,,,0.00,WUHU216HW,2013-05-21 01:15:00,
2013-05-20 17:20:00,53.4,25.5,30.18,West,270,2.6,8.5,34,0.00,,,0.00,WUHU216HW,2013-05-21 01:20:00,
2013-05-20 17:25:00,53.7,25.8,30.18,SW,225,3.8,6.7,34,0.00,,,0.00,WUHU216HW,2013-05-21 01:25:00,
2013-05-20 17:30:00,53.4,25.5,30.19,West,270,1.7,9.1,34,0.00,,,0.00,WUHU216HW,2013-05-21 01:30:00,
2013-05-20 17:35:00,53.4,25.5,30.18,WNW,293,3.3,9.1,34,0.00,,,0.00,WUHU216HW,2013-05-21 01:35:00,
2013-05-20 17:40:00,53.0,25.9,30.18,WSW,248,7.8,7.8,35,0.00,,,0.00,WUHU216HW,2013-05-21 01:40:00,
2013-05-20 17:45:00,52.7,25.6,30.18,WSW,248,4.6,7.8,35,0.00,,,0.00,WUHU216HW,2013-05-21 01:45:00,
2013-05-20 17:50:00,52.3,25.2,30.18,SSW,203,0.0,7.8,35,0.00,,,0.00,WUHU216HW,2013-05-21 01:50:00,
2013-05-20 17:55:00,51.9,24.9,30.18,West,270,1.5,7.6,35,0.00,,,0.00,WUHU216HW,2013-05-21 01:55:00,
2013-05-20 18:00:00,51.9,24.9,30.18,West,270,3.1,7.8,35,0.00,,,0.00,WUHU216HW,2013-05-21 02:00:00,
2013-05-20 18:05:00,51.8,25.4,30.19,WNW,293,8.2,8.2,36,0.00,,,0.00,WUHU216HW,2013-05-21 02:05:00,
2013-05-20 18:10:00,51.6,26.0,30.18,WSW,248,4.4,8.2,37,0.00,,,0.00,WUHU216HW,2013-05-21 02:10:00,
2013-05-20 18:15:00,51.0,26.2,30.19,South,180,7.1,7.1,38,0.00,,,0.00,WUHU216HW,2013-05-21 02:15:00,
2013-05-20 18:20:00,50.9,27.2,30.19,SW,225,9.8,9.8,39,0.00,,,0.00,WUHU216HW,2013-05-21 02:20:00,
2013-05-20 18:25:00,50.3,26.9,30.18,SSW,203,4.9,9.8,40,0.00,,,0.00,WUHU216HW,2013-05-21 02:25:00,
2013-05-20 18:30:00,49.2,25.2,30.18,SW,225,6.4,6.4,39,0.00,,,0.00,WUHU216HW,2013-05-21 02:30:00,
2013-05-20 18:35:00,49.1,25.1,30.18,West,270,1.7,6.4,39,0.00,,,0.00,WUHU216HW,2013-05-21 02:35:00,
2013-05-20 18:40:00,48.7,24.7,30.18,West,270,6.7,6.7,39,0.00,,,0.00,WUHU216HW,2013-05-21 02:40:00,
2013-05-20 18:45:00,48.7,24.1,30.18,West,270,3.3,6.7,38,0.00,,,0.00,WUHU216HW,2013-05-21 02:45:00,
2013-05-20 18:50:00,48.9,24.9,30.18,West,270,0.0,3.3,39,0.00,,,0.00,WUHU216HW,2013-05-21 02:50:00,
2013-05-20 18:55:00,48.9,24.9,30.18,WNW,293,1.5,5.5,39,0.00,,,0.00,WUHU216HW,2013-05-21 02:55:00,
2013-05-20 19:00:00,48.9,24.9,30.17,WNW,293,5.3,5.5,39,0.00,,,0.00,WUHU216HW,2013-05-21 03:00:00,
2013-05-20 19:05:00,48.9,24.9,30.17,NW,315,2.9,8.2,39,0.00,,,0.00,WUHU216HW,2013-05-21 03:05:00,
2013-05-20 19:10:00,49.1,25.1,30.17,WNW,293,3.3,8.2,39,0.00,,,0.00,WUHU216HW,2013-05-21 03:10:00,
2013-05-20 19:15:00,49.2,25.2,30.17,WSW,248,0.0,3.3,39,0.00,,,0.00,WUHU216HW,2013-05-21 03:15:00,
2013-05-20 19:20:00,49.2,25.2,30.17,WNW,293,7.1,11.4,39,0.00,,,0.00,WUHU216HW,2013-05-21 03:20:00,
2013-05-20 19:26:00,49.2,25.2,30.17,WNW,293,7.1,11.4,39,0.00,,,0.00,WUHU216HW,2013-05-21 03:26:00,
2013-05-20 19:31:00,48.7,25.4,30.17,SW,225,0.0,7.1,40,0.00,,,0.00,WUHU216HW,2013-05-21 03:31:00,
2013-05-20 19:36:00,48.9,24.9,30.18,West,270,2.0,2.6,39,0.00,,,0.00,WUHU216HW,2013-05-21 03:36:00,
2013-05-20 19:41:00,48.7,24.7,30.17,West,270,2.6,2.6,39,0.00,,,0.00,WUHU216HW,2013-05-21 03:41:00,
2013-05-20 19:46:00,48.5,24.6,30.17,WSW,248,4.4,4.4,39,0.00,,,0.00,WUHU216HW,2013-05-21 03:46:00,
2013-05-20 19:51:00,48.5,24.6,30.17,WSW,248,2.9,4.4,39,0.00,,,0.00,WUHU216HW,2013-05-21 03:51:00,
2013-05-20 19:56:00,48.5,24.6,30.17,WSW,248,3.5,4.6,39,0.00,,,0.00,WUHU216HW,2013-05-21 03:56:00,
2013-05-20 20:01:00,48.5,23.9,30.17,SW,225,0.0,5.1,38,0.00,,,0.00,WUHU216HW,2013-05-21 04:01:00,
2013-05-20 20:02:00,48.5,23.9,30.17,SW,225,0.0,5.1,38,0.00,,,0.00,WUHU216HW,2013-05-21 04:02:00,
2013-05-20 20:07:00,48.0,22.8,30.17,SSW,203,0.0,5.1,37,0.00,,,0.00,WUHU216HW,2013-05-21 04:07:00,
2013-05-20 20:12:00,47.8,22.6,30.17,WNW,293,1.1,1.7,37,0.00,,,0.00,WUHU216HW,2013-05-21 04:12:00,
2013-05-20 20:17:00,47.6,23.1,30.17,WSW,248,7.6,7.6,38,0.00,,,0.00,WUHU216HW,2013-05-21 04:17:00,
2013-05-20 20:22:00,47.3,22.8,30.17,West,270,0.2,7.6,38,0.00,,,0.00,WUHU216HW,2013-05-21 04:22:00,
2013-05-20 20:27:00,46.9,22.5,30.17,West,270,2.9,6.2,38,0.00,,,0.00,WUHU216HW,2013-05-21 04:27:00,
2013-05-20 20:32:00,46.5,22.8,30.17,WSW,248,2.4,4.4,39,0.00,,,0.00,WUHU216HW,2013-05-21 04:32:00,
2013-05-20 20:37:00,46.2,22.5,30.17,West,270,0.8,3.1,39,0.00,,,0.00,WUHU216HW,2013-05-21 04:37:00,
2013-05-20 20:42:00,45.6,22.7,30.17,West,270,0.0,4.4,40,0.00,,,0.00,WUHU216HW,2013-05-21 04:42:00,
2013-05-20 20:47:00,45.6,23.7,30.17,West,270,0.0,4.4,42,0.00,,,0.00,WUHU216HW,2013-05-21 04:47:00,
2013-05-20 20:52:00,45.5,24.1,30.18,SW,225,0.6,6.2,43,0.00,,,0.00,WUHU216HW,2013-05-21 04:52:00,
2013-05-20 20:57:00,45.3,25.0,30.17,WSW,248,2.9,6.2,45,0.00,,,0.00,WUHU216HW,2013-05-21 04:57:00,
2013-05-20 21:02:00,45.1,26.0,30.17,WNW,293,0.0,4.4,47,0.00,,,0.00,WUHU216HW,2013-05-21 05:02:00,
2013-05-20 21:07:00,45.1,26.0,30.17,West,270,0.0,2.9,47,0.00,,,0.00,WUHU216HW,2013-05-21 05:07:00,
2013-05-20 21:12:00,44.9,26.9,30.17,WSW,248,3.5,3.5,49,0.00,,,0.00,WUHU216HW,2013-05-21 05:12:00,
2013-05-20 21:17:00,44.7,27.3,30.17,WSW,248,0.0,3.5,50,0.00,,,0.00,WUHU216HW,2013-05-21 05:17:00,
2013-05-20 21:22:00,44.6,27.5,30.17,West,270,0.0,3.5,51,0.00,,,0.00,WUHU216HW,2013-05-21 05:22:00,
2013-05-20 21:27:00,44.6,28.0,30.17,West,270,2.2,2.2,52,0.00,,,0.00,WUHU216HW,2013-05-21 05:27:00,
2013-05-20 21:32:00,44.2,28.1,30.17,WSW,248,0.0,3.8,53,0.00,,,0.00,WUHU216HW,2013-05-21 05:32:00,
2013-05-20 21:37:00,43.8,27.9,30.17,WSW,248,0.0,3.8,54,0.00,,,0.00,WUHU216HW,2013-05-21 05:37:00,
2013-05-20 21:42:00,43.5,27.9,30.17,WSW,248,1.7,1.7,54,0.00,,,0.00,WUHU216HW,2013-05-21 05:42:00,
2013-05-20 21:47:00,43.3,28.1,30.17,South,180,5.8,5.8,55,0.00,,,0.00,WUHU216HW,2013-05-21 05:47:00,
2013-05-20 21:52:00,43.3,28.6,30.17,West,270,2.4,5.8,56,0.00,,,0.00,WUHU216HW,2013-05-21 05:52:00,
2013-05-20 21:57:00,42.6,28.3,30.17,West,270,1.1,2.4,57,0.00,,,0.00,WUHU216HW,2013-05-21 05:57:00,
2013-05-20 22:02:00,42.6,28.7,30.17,West,270,0.0,1.5,58,0.00,,,0.00,WUHU216HW,2013-05-21 06:02:00,
2013-05-20 22:07:00,42.2,28.4,30.17,SW,225,0.4,1.1,58,0.00,,,0.00,WUHU216HW,2013-05-21 06:07:00,
2013-05-20 22:12:00,41.7,27.9,30.17,SW,225,0.4,0.4,58,0.00,,,0.00,WUHU216HW,2013-05-21 06:12:00,
2013-05-20 22:17:00,41.5,28.2,30.17,WSW,248,0.0,0.4,59,0.00,,,0.00,WUHU216HW,2013-05-21 06:17:00,
2013-05-20 22:22:00,41.1,28.3,30.18,WSW,248,0.6,0.8,60,0.00,,,0.00,WUHU216HW,2013-05-21 06:22:00,
2013-05-20 22:27:00,40.8,28.4,30.18,WSW,248,0.0,0.8,61,0.00,,,0.00,WUHU216HW,2013-05-21 06:27:00,
2013-05-20 22:32:00,40.4,28.0,30.18,SW,225,0.0,0.0,61,0.00,,,0.00,WUHU216HW,2013-05-21 06:32:00,
2013-05-20 22:37:00,40.1,27.3,30.18,SW,225,0.0,0.0,60,0.00,,,0.00,WUHU216HW,2013-05-21 06:37:00,
2013-05-20 22:42:00,39.7,26.9,30.18,SW,225,0.0,0.0,60,0.00,,,0.00,WUHU216HW,2013-05-21 06:42:00,
2013-05-20 22:47:00,39.3,26.9,30.18,SW,225,0.0,0.0,61,0.00,,,0.00,WUHU216HW,2013-05-21 06:47:00,
2013-05-20 22:52:00,38.8,27.0,30.18,SW,225,0.0,0.0,62,0.00,,,0.00,WUHU216HW,2013-05-21 06:52:00,
2013-05-20 22:57:00,38.1,26.5,30.18,SW,225,0.0,0.0,63,0.00,,,0.00,WUHU216HW,2013-05-21 06:57:00,
2013-05-20 23:02:00,37.7,26.6,30.19,SW,225,0.0,0.0,64,0.00,,,0.00,WUHU216HW,2013-05-21 07:02:00,
2013-05-20 23:07:00,37.0,26.3,30.18,SW,225,0.0,0.0,65,0.00,,,0.00,WUHU216HW,2013-05-21 07:07:00,
2013-05-20 23:12:00,36.5,25.8,30.18,SW,225,0.0,0.0,65,0.00,,,0.00,WUHU216HW,2013-05-21 07:12:00,
2013-05-20 23:17:00,35.9,25.3,30.18,SW,225,0.0,0.0,65,0.00,,,0.00,WUHU216HW,2013-05-21 07:17:00,
2013-05-20 23:22:00,35.4,25.1,30.18,SW,225,0.0,0.0,66,0.00,,,0.00,WUHU216HW,2013-05-21 07:22:00,
2013-05-20 23:24:00,35.4,25.1,30.18,SW,225,0.0,0.0,66,0.00,,,0.00,WUHU216HW,2013-05-21 07:24:00,